Latest Weather Observations for Mount Read

IDT60801

Issued at 5:35 pm EST Thursday 18 September 2014 (issued every 30 minutes, with the page automatically refreshed every 10 minutes)

About weather observations | Map of weather stations | Latest weather observations for TAS | Other Formats
Station Details ID: 097085 Name: MOUNT READ Lat: -41.84 Lon: 145.54 Height: 1119.5 m
Data from the previous 72 hours. | See also: Recent months at Mount Read
Date/Time
EST
Temp
°C
App
Temp
°C
Dew
Point
Rel
Hum
%
Delta-T
°C
Wind Press
QNH
hPa
Press
MSL
hPa
Rain
since 9 am
mm
Dir
 
Spd
km/h
Gust
km/h
Spd
kts
Gust
kts
18/05:30pm 0.7 -10.3 0.6 99 0.0 SW 48 65 26 35 1015.6 1017.4 21.4
18/05:01pm 0.9 -9.1 0.8 99 0.0 WSW 43 61 23 33 1015.3 1017.1 20.2
18/05:00pm 0.7 -9.6 0.6 99 0.0 WSW 44 61 24 33 1015.2 1017.0 20.2
18/04:30pm 1.0 -10.0 0.9 99 0.0 WSW 48 63 26 34 1015.0 1016.8 20.2
18/04:29pm 0.9 -10.1 0.8 99 0.0 WSW 48 69 26 37 1015.2 1017.0 20.0
18/04:00pm 0.8 -11.0 0.7 99 0.0 SW 52 67 28 36 1015.0 1016.8 19.4
18/03:35pm 0.5 -9.6 0.4 99 0.0 WSW 43 63 23 34 1015.2 1017.0 18.4
18/03:30pm 0.6 -10.0 0.5 99 0.0 WSW 46 59 25 32 1015.3 1017.1 18.2
18/03:11pm 0.8 -8.9 0.7 99 0.0 WSW 41 59 22 32 1015.3 1017.1 17.4
18/03:00pm 0.7 -9.9 0.6 99 0.0 WSW 46 61 25 33 1015.3 1017.1 16.6
18/02:30pm 0.5 -9.8 0.4 99 0.0 SW 44 56 24 30 1015.6 1017.4 15.0
18/02:00pm 0.5 -9.2 0.4 99 0.0 SW 41 54 22 29 1015.8 1017.6 12.8
18/01:30pm 0.2 -9.9 0.1 99 0.0 SW 43 56 23 30 1015.7 1017.5 11.2
18/01:01pm 0.2 -10.1 0.1 99 0.0 SW 44 67 24 36 1015.4 1017.2 10.0
18/01:00pm 0.2 -9.9 0.1 99 0.0 SW 43 57 23 31 1015.6 1017.4 10.0
18/12:30pm 0.1 -8.9 0.0 99 0.0 SSW 37 48 20 26 1015.7 1017.5 8.8
18/12:11pm 0.2 -8.4 0.1 99 0.0 SW 35 57 19 31 1015.7 1017.5 8.2
18/12:00pm 0.3 -9.1 0.2 99 0.0 SW 39 50 21 27 1015.6 1017.4 7.6
18/11:30am 0.1 -7.2 0.0 99 0.0 SW 28 41 15 22 1015.8 1017.6 5.8
18/11:00am 0.0 -7.3 -0.1 99 0.0 SW 28 33 15 18 1015.7 1017.5 3.6
18/10:30am 0.0 -7.3 -0.1 99 0.0 SSW 28 39 15 21 1015.6 1017.4 1.4
18/10:00am -0.1 -8.2 -0.2 99 0.0 SW 32 43 17 23 1015.6 1017.4 0.2
18/09:30am -0.2 -9.3 -0.3 99 0.0 SSW 37 46 20 25 1015.1 1016.9 0.0
18/09:00am -0.5 -9.2 -0.6 99 0.0 SSW 35 44 19 24 1015.0 1016.8 5.6
18/08:30am -0.3 -7.7 -0.4 99 0.0 SSW 28 37 15 20 1014.4 1016.2 5.6
18/08:00am -0.4 -7.4 -0.5 99 0.0 SSW 26 32 14 17 1014.1 1015.9 5.6
18/07:30am -0.7 -7.4 -0.8 99 0.0 SSW 24 32 13 17 1013.9 1015.6 5.6
18/07:00am -0.7 -7.7 -0.8 99 0.0 SSW 26 30 14 16 1013.3 1015.1 5.6
18/06:30am -0.6 -8.8 -0.7 99 0.0 SSW 32 39 17 21 1012.8 1014.5 5.6
18/06:00am -0.9 -8.3 -1.0 99 0.0 SSW 28 35 15 19 1012.3 1014.0 5.6
18/05:30am -0.9 -8.0 -1.0 99 0.0 SSW 26 32 14 17 1012.2 1013.9 5.6
18/05:00am -0.7 -7.7 -0.8 99 0.0 SSW 26 33 14 18 1011.6 1013.4 5.6
18/04:30am -0.9 -8.7 -1.0 99 0.0 SSW 30 35 16 19 1011.4 1013.1 5.6
18/04:00am -1.2 -8.3 -1.3 99 0.0 SSW 26 32 14 17 1011.5 1013.2 5.6
18/03:30am -1.3 -9.6 -1.4 99 0.0 SSW 32 39 17 21 1011.0 1012.7 5.6
18/03:00am -1.1 -9.0 -1.2 99 0.0 SSW 30 37 16 20 1010.8 1012.4 5.6
18/02:30am -0.9 -9.1 -1.0 99 0.0 SSW 32 41 17 22 1010.6 1012.3 5.6
18/02:00am -1.3 -9.7 -1.4 99 0.0 SSW 33 39 18 21 1010.4 1012.1 5.6
18/01:30am -1.0 -8.8 -1.1 99 0.0 SSW 30 35 16 19 1010.6 1012.3 5.6
18/01:00am -1.3 -8.8 -1.4 99 0.0 SSW 28 35 15 19 1010.3 1012.0 5.6
18/12:30am -1.1 -9.5 -1.2 99 0.0 SSW 33 44 18 24 1010.2 1011.9 5.6
18/12:00am -1.5 -11.1 -1.6 99 0.0 SSW 39 46 21 25 1009.5 1011.2 5.6
 
Date/Time
EST
Temp
°C
App
Temp
°C
Dew
Point
Rel
Hum
%
Delta-T
°C
Wind Press
QNH
hPa
Press
MSL
hPa
Rain
since 9 am
mm
Dir
 
Spd
km/h
Gust
km/h
Spd
kts
Gust
kts
17/11:30pm -1.1 -9.9 -1.2 99 0.0 SSW 35 46 19 25 1009.4 1011.1 5.6
17/11:00pm -1.4 -9.9 -1.5 99 0.0 SSW 33 39 18 21 1009.3 1010.9 5.6
17/10:30pm -1.2 -10.4 -1.3 99 0.0 SSW 37 44 20 24 1008.8 1010.4 5.6
17/10:00pm -1.2 -10.0 -1.3 99 0.0 SSW 35 44 19 24 1008.8 1010.4 5.6
17/09:30pm -1.2 -10.0 -1.3 99 0.0 SSW 35 48 19 26 1008.3 1009.9 5.6
17/09:00pm -1.4 -10.6 -1.5 99 0.0 SSW 37 50 20 27 1007.7 1009.3 5.6
17/08:30pm -1.6 -12.0 -1.7 99 0.0 SW 43 52 23 28 1007.0 1008.5 5.6
17/08:00pm -1.4 -11.0 -1.5 99 0.0 SW 39 54 21 29 1006.7 1008.3 5.6
17/07:30pm -1.4 -11.4 -1.5 99 0.0 SSW 41 56 22 30 1006.4 1008.0 5.6
17/07:21pm -1.2 -10.4 -1.3 99 0.0 SW 37 56 20 30 1006.2 1007.7 5.6
17/07:00pm -1.2 -10.0 -1.3 99 0.0 SW 35 46 19 25 1006.2 1007.7 5.6
17/06:30pm -1.1 -11.4 -1.2 99 0.0 SW 43 59 23 32 1005.9 1007.4 5.6
17/06:22pm -1.1 -11.0 -1.2 99 0.0 SW 41 59 22 32 1005.5 1007.1 5.6
17/06:00pm -1.5 -10.0 -1.6 99 0.0 SW 33 46 18 25 1005.6 1007.2 5.6
17/05:35pm -1.6 -10.5 -1.7 99 0.0 SW 35 54 19 29 1005.3 1006.8 5.6
17/05:30pm -1.5 -10.0 -1.6 99 0.0 SW 33 50 18 27 1005.3 1006.8 5.6
17/05:00pm -1.5 -11.5 -1.6 99 0.0 SW 41 59 22 32 1005.2 1006.7 5.6
17/04:45pm -1.5 -10.4 -1.6 99 0.0 SW 35 59 19 32 1004.8 1006.4 5.6
17/04:30pm -1.6 -11.2 -1.7 99 0.0 SW 39 52 21 28 1004.7 1006.2 5.6
17/04:00pm -1.7 -12.1 -1.8 99 0.0 SSW 43 59 23 32 1004.2 1005.7 5.6
17/03:30pm -1.8 -14.3 -1.9 99 -0.1 SSW 54 69 29 37 1003.5 1005.0 5.6
17/03:05pm -1.3 -13.0 -1.4 99 0.0 SW 50 69 27 37 1003.3 1004.8 5.4
17/03:00pm -1.3 -13.4 -1.4 99 0.0 SW 52 69 28 37 1002.8 1004.3 5.4
17/02:30pm -1.4 -12.7 -1.5 99 0.0 SW 48 72 26 39 1003.1 1004.5 5.2
17/02:00pm -1.4 -11.4 -1.5 99 0.0 SW 41 59 22 32 1003.2 1004.6 5.0
17/01:59pm -1.5 -11.5 -1.6 99 0.0 SW 41 59 22 32 1003.2 1004.6 5.0
17/01:30pm -1.5 -12.1 -1.6 99 0.0 SW 44 63 24 34 1002.6 1004.1 4.8
17/01:05pm -1.5 -10.4 -1.6 99 0.0 SSW 35 56 19 30 1002.5 1004.0 4.8
17/01:00pm -1.7 -11.0 -1.8 99 0.0 SSW 37 54 20 29 1002.6 1004.1 4.8
17/12:58pm -1.6 -11.6 -1.7 99 0.0 SSW 41 61 22 33 1002.6 1004.1 4.8
17/12:36pm -1.1 -11.4 -1.2 99 0.0 SW 43 52 23 28 1002.5 1004.0 4.8
17/12:30pm -0.4 -6.3 -0.5 99 0.0 SSW 20 33 11 18 1002.7 1004.2 4.8
17/12:04pm -0.4 -8.5 -0.5 99 0.0 SW 32 52 17 28 1002.8 1004.3 4.4
17/12:00pm -0.5 -9.6 -0.6 99 0.0 SW 37 52 20 28 1002.8 1004.3 4.2
17/11:39am -0.7 -9.8 -0.8 99 0.0 SSW 37 56 20 30 1002.5 1004.0 3.4
17/11:30am -0.4 -8.5 -0.5 99 0.0 SSW 32 46 17 25 1002.7 1004.2 3.0
17/11:00am -0.6 -9.7 -0.7 99 0.0 SW 37 48 20 26 1002.8 1004.3 2.0
17/10:30am -0.8 -10.3 -0.9 99 0.0 SSW 39 52 21 28 1002.7 1004.2 1.2
17/10:00am -0.9 -9.7 -1.0 99 0.0 SW 35 54 19 29 1003.1 1004.5 1.0
17/09:47am -0.6 -8.0 -0.7 99 0.0 WSW 28 48 15 26 1003.0 1004.4 0.8
17/09:30am -0.6 -7.2 -0.7 99 0.0 WSW 24 35 13 19 1003.1 1004.5 0.4
17/09:00am -0.9 -9.7 -1.0 99 0.0 SW 35 50 19 27 1003.2 1004.6 15.6
17/08:30am -0.7 -9.1 -0.8 99 0.0 WSW 33 46 18 25 1003.5 1005.0 15.6
17/08:08am -0.3 -8.4 -0.4 99 0.0 WNW 32 50 17 27 1003.3 1004.8 15.6
17/08:00am -0.2 -7.9 -0.3 99 0.0 WNW 30 41 16 22 1003.3 1004.8 15.6
17/07:30am -0.2 -8.3 -0.3 99 0.0 WNW 32 54 17 29 1003.1 1004.5 15.6
17/07:13am -0.1 -8.4 -0.2 99 0.0 WNW 33 52 18 28 1003.2 1004.6 15.6
17/07:00am 0.9 -4.8 0.8 99 0.0 NW 20 35 11 19 1003.1 1004.5 15.4
17/06:30am 0.3 -7.0 0.2 99 0.0 WNW 28 41 15 22 1003.4 1004.9 14.8
17/06:00am 0.9 -5.9 0.8 99 0.0 WNW 26 39 14 21 1004.1 1005.6 14.6
17/05:30am 1.0 -6.5 0.9 99 0.0 WNW 30 41 16 22 1004.1 1005.6 14.2
17/05:00am 1.3 -6.2 1.2 99 0.0 WNW 30 41 16 22 1004.1 1005.6 14.2
17/04:33am 1.4 -5.7 1.3 99 0.0 WNW 28 46 15 25 1004.3 1005.8 14.0
17/04:30am 1.5 -5.2 1.4 99 0.0 WNW 26 46 14 25 1004.3 1005.8 14.0
17/04:28am 1.4 -5.7 1.3 99 0.0 WNW 28 46 15 25 1004.4 1005.9 14.0
17/04:00am 1.2 -6.9 1.1 99 0.0 WNW 33 48 18 26 1004.6 1006.1 14.0
17/03:52am 1.4 -5.7 1.3 99 0.0 WNW 28 48 15 26 1004.4 1005.9 13.6
17/03:30am 1.6 -3.0 1.5 99 0.0 NNW 15 28 8 15 1004.7 1006.2 12.4
17/03:00am 1.5 -3.1 1.4 99 0.0 NNW 15 30 8 16 1005.2 1006.7 11.8
17/02:30am 1.7 -2.9 1.6 99 0.0 N 15 24 8 13 1005.6 1007.2 11.0
17/02:00am 1.8 -4.1 1.7 99 0.0 NNW 22 30 12 16 1005.7 1007.3 10.6
17/01:30am 1.9 -3.0 1.8 99 0.0 NNW 17 24 9 13 1006.2 1007.7 10.6
17/01:00am 1.2 -3.5 1.1 99 0.0 WNW 15 20 8 11 1006.7 1008.3 9.4
17/12:30am 2.0 -3.3 1.9 99 0.0 NNW 19 30 10 16 1007.0 1008.5 7.2
17/12:00am 2.1 -2.8 2.0 99 0.0 NNW 17 26 9 14 1007.1 1008.7 7.2
 
Date/Time
EST
Temp
°C
App
Temp
°C
Dew
Point
Rel
Hum
%
Delta-T
°C
Wind Press
QNH
hPa
Press
MSL
hPa
Rain
since 9 am
mm
Dir
 
Spd
km/h
Gust
km/h
Spd
kts
Gust
kts
16/11:30pm 1.9 -3.4 1.8 99 0.0 NW 19 28 10 15 1007.2 1008.8 7.2
16/11:00pm 2.0 -3.3 1.9 99 0.0 WNW 19 24 10 13 1007.6 1009.2 7.2
16/10:30pm 1.9 -3.6 1.8 99 0.0 WNW 20 26 11 14 1007.7 1009.3 7.0
16/10:00pm 1.6 -4.0 1.5 99 0.0 W 20 24 11 13 1008.1 1009.7 7.0
16/09:30pm 1.0 -5.0 0.9 99 0.0 W 22 28 12 15 1008.2 1009.8 7.0
16/09:00pm 1.7 -4.2 1.6 99 0.0 WNW 22 26 12 14 1008.2 1009.8 7.0
16/08:30pm 1.6 -5.5 1.5 99 0.0 WNW 28 33 15 18 1008.3 1009.9 7.0
16/08:00pm 2.0 -3.9 1.9 99 0.0 W 22 28 12 15 1008.5 1010.1 7.0
16/07:30pm 2.2 -4.0 2.1 99 0.0 W 24 30 13 16 1008.3 1009.9 7.0
16/07:00pm 2.4 -2.5 2.3 99 0.0 W 17 26 9 14 1008.4 1010.0 6.8
16/06:30pm 2.9 -1.5 2.8 99 0.0 WNW 15 19 8 10 1008.3 1009.9 6.2
16/06:00pm 3.1 -0.5 3.0 99 0.0 W 11 15 6 8 1008.4 1010.0 6.0
16/05:30pm 3.1 -0.1 3.0 99 0.0 W 9 15 5 8 1008.3 1009.9 5.0
16/05:00pm 3.4 -0.5 3.3 99 0.0 W 13 17 7 9 1008.1 1009.7 4.6
16/04:30pm 3.3 -0.3 3.2 99 0.0 W 11 15 6 8 1008.2 1009.8 4.6
16/04:00pm 3.4 1.6 3.3 99 0.0 WSW 2 6 1 3 1008.2 1009.8 4.4
16/03:30pm 3.3 0.7 3.2 99 0.0 SSW 6 7 3 4 1008.2 1009.8 3.2
16/03:00pm 3.4 1.2 3.3 99 0.0 NNW 4 6 2 3 1008.1 1009.7 2.6
16/02:30pm 3.4 0.8 3.3 99 0.0 N 6 9 3 5 1008.2 1009.8 1.8
16/02:00pm 3.3 1.1 3.2 99 0.0 N 4 7 2 4 1008.3 1009.9 0.6
16/01:30pm 3.5 0.7 3.4 99 0.0 WNW 7 11 4 6 1008.5 1010.1 0.0
16/01:00pm 3.6 1.4 3.5 99 0.0 NW 4 7 2 4 1008.8 1010.4 0.0
16/12:30pm 4.0 1.2 3.0 93 0.4 NNE 7 11 4 6 1009.1 1010.7 0.0
16/12:00pm 4.4 1.5 2.8 89 0.7 N 7 11 4 6 1009.5 1011.2 0.0
16/11:30am 5.1 2.3 3.0 86 0.9 NNW 7 13 4 7 1009.6 1011.3 0.0
16/11:00am 5.4 2.9 3.6 88 0.8 N 6 7 3 4 1010.0 1011.6 0.0
16/10:30am 4.0 1.2 2.0 87 0.9 NNW 6 9 3 5 1010.3 1012.0 0.0
16/10:00am 5.4 2.5 2.8 83 1.2 E 7 15 4 8 1010.5 1012.2 0.0
16/09:30am 3.8 1.3 1.5 85 1.0 ENE 4 7 2 4 1010.4 1012.1 0.0
16/09:00am 3.7 1.3 2.1 89 0.7 ENE 4 6 2 3 1010.6 1012.3 0.2
16/08:30am 3.0 0.2 1.8 92 0.5 NNE 6 9 3 5 1010.8 1012.4 0.2
16/08:00am 2.4 -0.5 1.4 93 0.4 NNE 6 7 3 4 1010.9 1012.6 0.2
16/07:30am 1.8 -1.8 0.9 94 0.4 N 9 11 5 6 1010.9 1012.6 0.2
16/07:00am 1.3 -2.3 0.9 97 0.2 NNE 9 13 5 7 1011.0 1012.7 0.2
16/06:30am 1.0 -3.7 0.9 99 0.0 NNE 15 19 8 10 1010.8 1012.4 0.0
16/06:00am 0.8 -3.9 0.7 99 0.0 NNE 15 19 8 10 1010.6 1012.3 0.0
16/05:30am 0.9 -4.2 0.8 99 0.0 NNE 17 19 9 10 1010.6 1012.3 0.0
16/05:00am 0.9 -4.6 0.8 99 0.0 N 19 24 10 13 1010.9 1012.6 0.0
16/04:30am 0.9 -4.6 0.8 99 0.0 N 19 24 10 13 1010.9 1012.6 0.0
16/04:00am 0.8 -4.3 0.7 99 0.0 N 17 20 9 11 1010.9 1012.6 0.0
16/03:30am 0.8 -4.9 0.7 99 0.0 N 20 24 11 13 1010.9 1012.6 0.0
16/03:00am 1.1 -4.3 1.0 99 0.0 N 19 22 10 12 1011.0 1012.7 0.0
16/02:30am 1.0 -5.0 0.9 99 0.0 NNE 22 28 12 15 1011.3 1013.0 0.0
16/02:00am 1.2 -5.6 1.1 99 0.0 NNE 26 30 14 16 1011.4 1013.1 0.0
16/01:30am 1.3 -5.8 1.2 99 0.0 NNE 28 33 15 18 1011.5 1013.2 0.0
16/01:00am 1.3 -5.8 1.2 99 0.0 NNE 28 35 15 19 1012.0 1013.7 0.0
16/12:30am 1.3 -6.8 1.2 99 0.0 NNE 33 41 18 22 1012.0 1013.7 0.0
16/12:00am 1.2 -7.3 1.1 99 0.0 NNE 35 43 19 23 1011.9 1013.6 0.0
 
Date/Time
EST
Temp
°C
App
Temp
°C
Dew
Point
Rel
Hum
%
Delta-T
°C
Wind Press
QNH
hPa
Press
MSL
hPa
Rain
since 9 am
mm
Dir
 
Spd
km/h
Gust
km/h
Spd
kts
Gust
kts
15/11:30pm 1.0 -6.5 0.9 99 0.0 NNE 30 33 16 18 1012.3 1014.0 0.0
15/11:00pm 1.2 -6.7 1.1 99 0.0 NNE 32 41 17 22 1012.4 1014.2 0.0
15/10:30pm 0.8 -6.4 0.7 99 0.0 NNE 28 32 15 17 1012.7 1014.4 0.0
15/10:00pm 1.1 -6.8 1.0 99 0.0 NNE 32 37 17 20 1012.7 1014.4 0.0
15/09:30pm 1.4 -6.5 1.3 99 0.0 NNE 32 37 17 20 1012.9 1014.6 0.0
15/09:00pm 1.5 -4.4 1.4 99 0.0 NNE 22 28 12 15 1013.2 1015.0 0.0
15/08:30pm 1.9 -4.0 1.8 99 0.0 NNE 22 24 12 13 1013.3 1015.1 0.0
15/08:00pm 2.1 -3.4 1.7 97 0.2 N 20 24 11 13 1013.7 1015.4 0.0
15/07:30pm 2.4 -1.7 2.1 98 0.1 N 13 17 7 9 1013.7 1015.4 0.0
15/07:00pm 2.6 -2.3 2.2 97 0.2 N 17 20 9 11 1013.4 1015.2 0.0
15/06:30pm 2.9 -1.1 2.6 98 0.1 N 13 17 7 9 1013.3 1015.1 0.0
15/06:00pm 3.6 0.0 3.2 97 0.2 N 11 15 6 8 1013.4 1015.2 0.0

Other Formats:

Comma delimited format used in spreadsheet applications
http://www.bom.gov.au/fwo/IDT60801/IDT60801.95952.axf

JavaScript Object Notation format (JSON) in row-major order
http://www.bom.gov.au/fwo/IDT60801/IDT60801.95952.json